sensor_id;sensor_type;location;lat;lon;timestamp;pressure;altitude;pressure_sealevel;temperature;humidity
35910;BME280;22004;49.120;-0.200;2023-10-19T00:45:31;98900.41;;;14.81;100.00
35910;BME280;22004;49.120;-0.200;2023-10-19T00:47:59;98875.84;;;14.82;100.00
35910;BME280;22004;49.120;-0.200;2023-10-19T00:50:24;98880.13;;;14.78;100.00
35910;BME280;22004;49.120;-0.200;2023-10-19T00:52:52;98883.84;;;14.72;100.00
35910;BME280;22004;49.120;-0.200;2023-10-19T00:55:18;98866.00;;;14.71;100.00
35910;BME280;22004;49.120;-0.200;2023-10-19T00:57:48;98870.03;;;14.68;100.00
35910;BME280;22004;49.120;-0.200;2023-10-19T01:00:14;98869.75;;;14.70;100.00
35910;BME280;22004;49.120;-0.200;2023-10-19T01:02:57;98859.22;;;14.68;100.00
35910;BME280;22004;49.120;-0.200;2023-10-19T01:05:26;98857.66;;;14.72;100.00
35910;BME280;22004;49.120;-0.200;2023-10-19T01:07:57;98861.34;;;14.66;100.00
35910;BME280;22004;49.120;-0.200;2023-10-19T01:10:26;98855.88;;;14.61;100.00
35910;BME280;22004;49.120;-0.200;2023-10-19T01:12:53;98846.75;;;14.62;100.00
35910;BME280;22004;49.120;-0.200;2023-10-19T01:15:21;98835.09;;;14.62;100.00
35910;BME280;22004;49.120;-0.200;2023-10-19T01:17:56;98839.94;;;14.60;100.00
35910;BME280;22004;49.120;-0.200;2023-10-19T01:25:49;98842.69;;;14.65;100.00
35910;BME280;22004;49.120;-0.200;2023-10-19T01:28:30;98840.81;;;14.65;100.00
35910;BME280;22004;49.120;-0.200;2023-10-19T01:31:21;98843.06;;;14.73;100.00
35910;BME280;22004;49.120;-0.200;2023-10-19T02:31:04;98759.25;;;14.95;100.00
35910;BME280;22004;49.120;-0.200;2023-10-19T02:33:40;98759.47;;;14.89;100.00
35910;BME280;22004;49.120;-0.200;2023-10-19T02:36:06;98761.41;;;14.93;100.00
35910;BME280;22004;49.120;-0.200;2023-10-19T02:38:38;98756.28;;;14.92;100.00
35910;BME280;22004;49.120;-0.200;2023-10-19T02:41:04;98764.63;;;14.90;100.00
35910;BME280;22004;49.120;-0.200;2023-10-19T02:43:30;98749.22;;;14.91;100.00
35910;BME280;22004;49.120;-0.200;2023-10-19T02:45:58;98758.72;;;14.93;100.00
35910;BME280;22004;49.120;-0.200;2023-10-19T02:48:24;98757.09;;;14.92;100.00
35910;BME280;22004;49.120;-0.200;2023-10-19T02:50:50;98760.34;;;14.94;100.00
35910;BME280;22004;49.120;-0.200;2023-10-19T02:53:15;98752.50;;;14.93;100.00
35910;BME280;22004;49.120;-0.200;2023-10-19T02:55:44;98757.63;;;14.94;100.00
35910;BME280;22004;49.120;-0.200;2023-10-19T02:58:09;98751.47;;;14.99;100.00
35910;BME280;22004;49.120;-0.200;2023-10-19T03:00:37;98743.63;;;14.97;100.00
35910;BME280;22004;49.120;-0.200;2023-10-19T03:03:03;98727.63;;;14.96;100.00
35910;BME280;22004;49.120;-0.200;2023-10-19T03:05:30;98724.09;;;14.90;100.00
35910;BME280;22004;49.120;-0.200;2023-10-19T03:07:56;98721.38;;;14.90;100.00
35910;BME280;22004;49.120;-0.200;2023-10-19T03:10:21;98715.13;;;14.85;100.00
35910;BME280;22004;49.120;-0.200;2023-10-19T03:12:59;98712.16;;;14.86;100.00
35910;BME280;22004;49.120;-0.200;2023-10-19T03:15:25;98709.19;;;14.83;100.00
35910;BME280;22004;49.120;-0.200;2023-10-19T03:17:52;98711.88;;;14.83;100.00
35910;BME280;22004;49.120;-0.200;2023-10-19T03:20:17;98712.16;;;14.86;100.00
35910;BME280;22004;49.120;-0.200;2023-10-19T03:22:48;98708.66;;;14.86;100.00
35910;BME280;22004;49.120;-0.200;2023-10-19T03:25:14;98720.53;;;14.85;100.00
35910;BME280;22004;49.120;-0.200;2023-10-19T03:27:57;98706.53;;;14.88;100.00
35910;BME280;22004;49.120;-0.200;2023-10-19T03:30:30;98701.34;;;14.86;100.00
35910;BME280;22004;49.120;-0.200;2023-10-19T03:32:56;98708.44;;;14.92;100.00
35910;BME280;22004;49.120;-0.200;2023-10-19T03:35:24;98705.19;;;14.90;100.00
35910;BME280;22004;49.120;-0.200;2023-10-19T03:37:49;98697.59;;;14.87;100.00
35910;BME280;22004;49.120;-0.200;2023-10-19T03:40:17;98704.63;;;14.88;100.00
35910;BME280;22004;49.120;-0.200;2023-10-19T03:42:50;98710.31;;;14.87;100.00
35910;BME280;22004;49.120;-0.200;2023-10-19T03:45:19;98700.53;;;14.86;100.00
35910;BME280;22004;49.120;-0.200;2023-10-19T03:47:47;98695.41;;;14.84;100.00
35910;BME280;22004;49.120;-0.200;2023-10-19T03:50:14;98700.00;;;14.84;100.00
35910;BME280;22004;49.120;-0.200;2023-10-19T03:52:45;98692.94;;;14.78;100.00
35910;BME280;22004;49.120;-0.200;2023-10-19T03:55:10;98687.25;;;14.79;100.00
35910;BME280;22004;49.120;-0.200;2023-10-19T03:57:44;98695.38;;;14.79;100.00
35910;BME280;22004;49.120;-0.200;2023-10-19T04:00:15;98683.75;;;14.79;100.00
35910;BME280;22004;49.120;-0.200;2023-10-19T04:02:44;98685.88;;;14.77;100.00
35910;BME280;22004;49.120;-0.200;2023-10-19T04:05:10;98683.19;;;14.77;100.00
35910;BME280;22004;49.120;-0.200;2023-10-19T04:07:39;98678.31;;;14.73;100.00
35910;BME280;22004;49.120;-0.200;2023-10-19T04:10:06;98677.72;;;14.71;100.00
35910;BME280;22004;49.120;-0.200;2023-10-19T04:12:33;98680.44;;;14.71;100.00
35910;BME280;22004;49.120;-0.200;2023-10-19T04:15:01;98667.78;;;14.72;100.00
35910;BME280;22004;49.120;-0.200;2023-10-19T04:17:42;98665.88;;;14.72;100.00
35910;BME280;22004;49.120;-0.200;2023-10-19T04:20:09;98663.41;;;14.71;100.00
35910;BME280;22004;49.120;-0.200;2023-10-19T04:22:55;98648.00;;;14.66;100.00
35910;BME280;22004;49.120;-0.200;2023-10-19T04:25:30;98649.88;;;14.66;100.00
35910;BME280;22004;49.120;-0.200;2023-10-19T04:27:56;98654.47;;;14.65;100.00
35910;BME280;22004;49.120;-0.200;2023-10-19T04:30:22;98649.34;;;14.64;100.00
35910;BME280;22004;49.120;-0.200;2023-10-19T04:32:48;98650.69;;;14.66;100.00
35910;BME280;22004;49.120;-0.200;2023-10-19T04:35:18;98644.19;;;14.62;100.00
35910;BME280;22004;49.120;-0.200;2023-10-19T04:37:50;98650.94;;;14.65;100.00
35910;BME280;22004;49.120;-0.200;2023-10-19T04:40:17;98640.41;;;14.63;100.00
35910;BME280;22004;49.120;-0.200;2023-10-19T04:42:42;98647.44;;;14.64;100.00
35910;BME280;22004;49.120;-0.200;2023-10-19T04:45:08;98638.25;;;14.65;100.00
35910;BME280;22004;49.120;-0.200;2023-10-19T04:47:34;98640.41;;;14.63;100.00
35910;BME280;22004;49.120;-0.200;2023-10-19T04:50:05;98629.94;;;14.67;100.00
35910;BME280;22004;49.120;-0.200;2023-10-19T04:52:31;98624.53;;;14.67;100.00
35910;BME280;22004;49.120;-0.200;2023-10-19T04:54:57;98619.13;;;14.67;100.00
35910;BME280;22004;49.120;-0.200;2023-10-19T04:57:22;98617.47;;;14.66;100.00
35910;BME280;22004;49.120;-0.200;2023-10-19T04:59:48;98605.84;;;14.65;100.00
35910;BME280;22004;49.120;-0.200;2023-10-19T05:02:13;98608.81;;;14.64;100.00
35910;BME280;22004;49.120;-0.200;2023-10-19T05:04:39;98606.41;;;14.62;100.00
35910;BME280;22004;49.120;-0.200;2023-10-19T05:07:06;98604.75;;;14.61;100.00
35910;BME280;22004;49.120;-0.200;2023-10-19T05:09:32;98609.09;;;14.62;100.00
35910;BME280;22004;49.120;-0.200;2023-10-19T05:11:57;98603.94;;;14.61;100.00
35910;BME280;22004;49.120;-0.200;2023-10-19T05:14:23;98603.13;;;14.60;100.00
35910;BME280;22004;49.120;-0.200;2023-10-19T05:16:48;98579.63;;;14.61;100.00
35910;BME280;22004;49.120;-0.200;2023-10-19T05:19:14;98575.81;;;14.57;100.00
35910;BME280;22004;49.120;-0.200;2023-10-19T05:21:39;98577.97;;;14.55;100.00
35910;BME280;22004;49.120;-0.200;2023-10-19T05:24:05;98564.19;;;14.56;100.00
35910;BME280;22004;49.120;-0.200;2023-10-19T05:26:33;98566.63;;;14.53;100.00
35910;BME280;22004;49.120;-0.200;2023-10-19T05:28:58;98551.25;;;14.53;100.00
35910;BME280;22004;49.120;-0.200;2023-10-19T05:31:24;98562.56;;;14.55;100.00
35910;BME280;22004;49.120;-0.200;2023-10-19T05:33:49;98554.75;;;14.54;100.00
35910;BME280;22004;49.120;-0.200;2023-10-19T05:36:15;98550.16;;;14.54;100.00
35910;BME280;22004;49.120;-0.200;2023-10-19T05:38:42;98545.84;;;14.53;100.00
35910;BME280;22004;49.120;-0.200;2023-10-19T05:41:08;98541.25;;;14.54;100.00
35910;BME280;22004;49.120;-0.200;2023-10-19T05:43:33;98549.34;;;14.54;100.00
35910;BME280;22004;49.120;-0.200;2023-10-19T05:46:00;98555.56;;;14.54;100.00
35910;BME280;22004;49.120;-0.200;2023-10-19T05:48:25;98548.81;;;14.57;100.00
35910;BME280;22004;49.120;-0.200;2023-10-19T05:50:51;98547.19;;;14.56;100.00
35910;BME280;22004;49.120;-0.200;2023-10-19T05:53:16;98537.47;;;14.55;100.00
35910;BME280;22004;49.120;-0.200;2023-10-19T05:55:44;98531.00;;;14.56;100.00
35910;BME280;22004;49.120;-0.200;2023-10-19T05:58:09;98525.31;;;14.52;100.00
35910;BME280;22004;49.120;-0.200;2023-10-19T06:00:35;98518.84;;;14.53;100.00
35910;BME280;22004;49.120;-0.200;2023-10-19T06:03:00;98520.75;;;14.58;100.00
35910;BME280;22004;49.120;-0.200;2023-10-19T06:05:26;98519.38;;;14.55;100.00
35910;BME280;22004;49.120;-0.200;2023-10-19T06:07:51;98515.06;;;14.54;100.00
35910;BME280;22004;49.120;-0.200;2023-10-19T06:10:19;98509.94;;;14.53;100.00
35910;BME280;22004;49.120;-0.200;2023-10-19T06:12:47;98511.00;;;14.57;100.00
35910;BME280;22004;49.120;-0.200;2023-10-19T06:15:14;98510.19;;;14.56;100.00
35910;BME280;22004;49.120;-0.200;2023-10-19T06:17:41;98505.91;;;14.60;100.00
35910;BME280;22004;49.120;-0.200;2023-10-19T06:20:08;98505.13;;;14.65;100.00
35910;BME280;22004;49.120;-0.200;2023-10-19T06:22:37;98511.84;;;14.57;100.00
35910;BME280;22004;49.120;-0.200;2023-10-19T06:25:03;98517.25;;;14.57;100.00
35910;BME280;22004;49.120;-0.200;2023-10-19T06:27:31;98509.38;;;14.56;100.00
35910;BME280;22004;49.120;-0.200;2023-10-19T06:29:57;98508.31;;;14.57;100.00
35910;BME280;22004;49.120;-0.200;2023-10-19T06:32:22;98508.31;;;14.57;100.00
35910;BME280;22004;49.120;-0.200;2023-10-19T06:34:48;98495.03;;;14.50;100.00
35910;BME280;22004;49.120;-0.200;2023-10-19T06:37:13;98485.88;;;14.51;100.00
35910;BME280;22004;49.120;-0.200;2023-10-19T06:39:38;98485.63;;;14.53;100.00
35910;BME280;22004;49.120;-0.200;2023-10-19T06:42:07;98481.84;;;14.54;100.00
35910;BME280;22004;49.120;-0.200;2023-10-19T06:44:35;98483.47;;;14.55;100.00
35910;BME280;22004;49.120;-0.200;2023-10-19T06:47:01;98483.72;;;14.48;100.00
35910;BME280;22004;49.120;-0.200;2023-10-19T06:49:26;98492.63;;;14.48;100.00
35910;BME280;22004;49.120;-0.200;2023-10-19T06:51:54;98487.78;;;14.56;100.00
35910;BME280;22004;49.120;-0.200;2023-10-19T06:54:19;98486.34;;;14.43;100.00
35910;BME280;22004;49.120;-0.200;2023-10-19T06:56:45;98492.25;;;14.40;100.00
35910;BME280;22004;49.120;-0.200;2023-10-19T06:59:10;98490.38;;;14.40;100.00
35910;BME280;22004;49.120;-0.200;2023-10-19T07:01:36;98483.03;;;14.36;100.00
35910;BME280;22004;49.120;-0.200;2023-10-19T07:04:01;98483.91;;;14.46;100.00
35910;BME280;22004;49.120;-0.200;2023-10-19T07:06:27;98480.47;;;14.51;100.00
35910;BME280;22004;49.120;-0.200;2023-10-19T07:08:53;98474.84;;;14.58;100.00
35910;BME280;22004;49.120;-0.200;2023-10-19T07:11:18;98477.44;;;14.42;100.00
35910;BME280;22004;49.120;-0.200;2023-10-19T07:13:43;98465.91;;;14.52;100.00
35910;BME280;22004;49.120;-0.200;2023-10-19T07:16:11;98469.47;;;14.63;100.00
35910;BME280;22004;49.120;-0.200;2023-10-19T07:18:36;98465.44;;;14.65;100.00
35910;BME280;22004;49.120;-0.200;2023-10-19T07:21:02;98461.91;;;14.65;100.00
35910;BME280;22004;49.120;-0.200;2023-10-19T07:23:28;98468.13;;;14.65;100.00
35910;BME280;22004;49.120;-0.200;2023-10-19T07:25:54;98470.25;;;14.58;100.00
35910;BME280;22004;49.120;-0.200;2023-10-19T07:28:21;98477.06;;;14.71;100.00
35910;BME280;22004;49.120;-0.200;2023-10-19T07:30:47;98472.72;;;14.65;100.00
35910;BME280;22004;49.120;-0.200;2023-10-19T07:33:14;98468.91;;;14.61;100.00
35910;BME280;22004;49.120;-0.200;2023-10-19T07:35:43;98480.78;;;14.55;100.00
35910;BME280;22004;49.120;-0.200;2023-10-19T07:38:12;98476.41;;;14.48;100.00
35910;BME280;22004;49.120;-0.200;2023-10-19T07:40:38;98471.41;;;14.67;100.00
35910;BME280;22004;49.120;-0.200;2023-10-19T07:43:04;98464.88;;;14.63;100.00
35910;BME280;22004;49.120;-0.200;2023-10-19T07:45:30;98464.63;;;14.70;100.00
35910;BME280;22004;49.120;-0.200;2023-10-19T07:47:57;98465.22;;;14.72;100.00
35910;BME280;22004;49.120;-0.200;2023-10-19T07:50:23;98462.56;;;14.82;100.00
35910;BME280;22004;49.120;-0.200;2023-10-19T07:52:52;98455.50;;;14.81;100.00
35910;BME280;22004;49.120;-0.200;2023-10-19T07:55:21;98457.66;;;14.79;100.00
35910;BME280;22004;49.120;-0.200;2023-10-19T07:57:51;98460.38;;;14.84;100.00
35910;BME280;22004;49.120;-0.200;2023-10-19T08:00:19;98461.53;;;14.98;100.00
35910;BME280;22004;49.120;-0.200;2023-10-19T08:02:44;98461.63;;;15.34;100.00
35910;BME280;22004;49.120;-0.200;2023-10-19T08:05:14;98461.31;;;15.20;100.00
35910;BME280;22004;49.120;-0.200;2023-10-19T08:07:40;98468.00;;;14.97;100.00
35910;BME280;22004;49.120;-0.200;2023-10-19T08:10:09;98466.38;;;14.96;100.00
35910;BME280;22004;49.120;-0.200;2023-10-19T08:12:36;98465.03;;;14.94;100.00
35910;BME280;22004;49.120;-0.200;2023-10-19T08:15:02;98472.69;;;15.28;100.00
35910;BME280;22004;49.120;-0.200;2023-10-19T08:17:29;98467.03;;;15.29;100.00
35910;BME280;22004;49.120;-0.200;2023-10-19T08:19:54;98465.38;;;15.23;100.00
35910;BME280;22004;49.120;-0.200;2023-10-19T08:22:20;98471.28;;;15.05;100.00
35910;BME280;22004;49.120;-0.200;2023-10-19T08:24:46;98470.00;;;15.28;100.00
35910;BME280;22004;49.120;-0.200;2023-10-19T08:27:12;98470.84;;;15.43;100.00
35910;BME280;22004;49.120;-0.200;2023-10-19T08:29:38;98475.25;;;16.00;100.00
35910;BME280;22004;49.120;-0.200;2023-10-19T08:32:03;98464.91;;;16.43;100.00
35910;BME280;22004;49.120;-0.200;2023-10-19T08:34:29;98470.00;;;16.75;100.00
35910;BME280;22004;49.120;-0.200;2023-10-19T08:36:58;98457.78;;;16.83;100.00
35910;BME280;22004;49.120;-0.200;2023-10-19T08:39:24;98451.41;;;17.13;99.54
35910;BME280;22004;49.120;-0.200;2023-10-19T08:41:49;98450.94;;;17.50;99.35
35910;BME280;22004;49.120;-0.200;2023-10-19T08:44:19;98450.44;;;17.38;100.00
35910;BME280;22004;49.120;-0.200;2023-10-19T08:46:44;98449.22;;;17.15;100.00
35910;BME280;22004;49.120;-0.200;2023-10-19T08:49:14;98462.31;;;17.52;100.00
35910;BME280;22004;49.120;-0.200;2023-10-19T08:51:43;98457.50;;;16.85;100.00
35910;BME280;22004;49.120;-0.200;2023-10-19T08:54:10;98444.78;;;16.80;100.00
35910;BME280;22004;49.120;-0.200;2023-10-19T08:56:37;98443.00;;;17.10;100.00
35910;BME280;22004;49.120;-0.200;2023-10-19T08:59:03;98438.72;;;17.48;100.00
35910;BME280;22004;49.120;-0.200;2023-10-19T09:01:28;98441.59;;;17.67;98.85
35910;BME280;22004;49.120;-0.200;2023-10-19T09:03:57;98440.19;;;17.74;99.68
35910;BME280;22004;49.120;-0.200;2023-10-19T09:06:23;98441.34;;;17.63;98.30
35910;BME280;22004;49.120;-0.200;2023-10-19T09:08:48;98440.34;;;17.88;100.00
35910;BME280;22004;49.120;-0.200;2023-10-19T09:11:15;98453.97;;;17.83;99.44
35910;BME280;22004;49.120;-0.200;2023-10-19T09:13:47;98441.69;;;17.51;100.00
35910;BME280;22004;49.120;-0.200;2023-10-19T09:16:22;98449.13;;;17.75;100.00
35910;BME280;22004;49.120;-0.200;2023-10-19T09:18:50;98449.69;;;17.77;100.00
35910;BME280;22004;49.120;-0.200;2023-10-19T09:21:19;98447.81;;;17.67;100.00
35910;BME280;22004;49.120;-0.200;2023-10-19T09:23:55;98445.91;;;17.28;100.00
35910;BME280;22004;49.120;-0.200;2023-10-19T09:26:21;98441.44;;;17.03;100.00
35910;BME280;22004;49.120;-0.200;2023-10-19T09:28:48;98437.59;;;17.10;100.00
35910;BME280;22004;49.120;-0.200;2023-10-19T09:31:14;98440.50;;;17.23;100.00
35910;BME280;22004;49.120;-0.200;2023-10-19T09:33:45;98442.00;;;17.45;100.00
35910;BME280;22004;49.120;-0.200;2023-10-19T09:36:12;98437.84;;;17.97;100.00
35910;BME280;22004;49.120;-0.200;2023-10-19T09:38:50;98426.78;;;18.17;100.00
35910;BME280;22004;49.120;-0.200;2023-10-19T09:41:20;98429.09;;;18.29;99.64
35910;BME280;22004;49.120;-0.200;2023-10-19T09:43:48;98427.75;;;18.31;100.00
35910;BME280;22004;49.120;-0.200;2023-10-19T09:48:46;98440.66;;;17.87;100.00
35910;BME280;22004;49.120;-0.200;2023-10-19T09:51:14;98444.34;;;17.62;100.00
35910;BME280;22004;49.120;-0.200;2023-10-19T09:53:42;98434.53;;;17.26;100.00
35910;BME280;22004;49.120;-0.200;2023-10-19T09:56:12;98426.53;;;17.06;100.00
35910;BME280;22004;49.120;-0.200;2023-10-19T09:58:59;98410.03;;;16.97;100.00
35910;BME280;22004;49.120;-0.200;2023-10-19T10:01:27;98406.34;;;17.22;100.00
35910;BME280;22004;49.120;-0.200;2023-10-19T10:03:53;98401.81;;;17.52;100.00
35910;BME280;22004;49.120;-0.200;2023-10-19T10:09:19;98399.34;;;17.16;100.00
35910;BME280;22004;49.120;-0.200;2023-10-19T10:11:51;98396.44;;;17.02;100.00
35910;BME280;22004;49.120;-0.200;2023-10-19T10:14:25;98403.78;;;16.97;100.00
35910;BME280;22004;49.120;-0.200;2023-10-19T10:17:04;98401.56;;;17.04;100.00
35910;BME280;22004;49.120;-0.200;2023-10-19T10:19:35;98408.66;;;16.95;100.00
35910;BME280;22004;49.120;-0.200;2023-10-19T10:22:10;98410.25;;;17.06;100.00
35910;BME280;22004;49.120;-0.200;2023-10-19T10:24:46;98399.53;;;17.25;100.00
35910;BME280;22004;49.120;-0.200;2023-10-19T10:27:16;98405.03;;;17.54;100.00
35910;BME280;22004;49.120;-0.200;2023-10-19T10:29:56;98395.84;;;17.50;100.00
35910;BME280;22004;49.120;-0.200;2023-10-19T10:32:44;98376.13;;;17.39;100.00
35910;BME280;22004;49.120;-0.200;2023-10-19T10:38:03;98341.94;;;17.43;100.00
35910;BME280;22004;49.120;-0.200;2023-10-19T10:40:31;98336.56;;;17.67;100.00
35910;BME280;22004;49.120;-0.200;2023-10-19T10:43:06;98359.88;;;18.02;100.00
35910;BME280;22004;49.120;-0.200;2023-10-19T10:45:32;98361.09;;;18.15;100.00
35910;BME280;22004;49.120;-0.200;2023-10-19T10:47:57;98345.84;;;18.43;100.00
35910;BME280;22004;49.120;-0.200;2023-10-19T10:50:25;98351.22;;;18.00;100.00
35910;BME280;22004;49.120;-0.200;2023-10-19T10:52:50;98346.91;;;17.94;100.00
35910;BME280;22004;49.120;-0.200;2023-10-19T10:55:23;98340.28;;;18.29;100.00
35910;BME280;22004;49.120;-0.200;2023-10-19T10:57:49;98344.16;;;18.23;100.00
35910;BME280;22004;49.120;-0.200;2023-10-19T11:00:15;98346.47;;;17.87;100.00
35910;BME280;22004;49.120;-0.200;2023-10-19T11:02:41;98336.56;;;18.44;100.00
35910;BME280;22004;49.120;-0.200;2023-10-19T11:05:16;98334.28;;;18.08;100.00
35910;BME280;22004;49.120;-0.200;2023-10-19T11:10:31;98329.41;;;18.29;100.00
35910;BME280;22004;49.120;-0.200;2023-10-19T11:13:06;98331.22;;;18.39;100.00
35910;BME280;22004;49.120;-0.200;2023-10-19T11:15:36;98333.84;;;18.44;100.00
35910;BME280;22004;49.120;-0.200;2023-10-19T11:18:07;98337.72;;;18.86;99.91
35910;BME280;22004;49.120;-0.200;2023-10-19T11:20:33;98318.16;;;18.84;97.12
35910;BME280;22004;49.120;-0.200;2023-10-19T11:22:58;98318.06;;;19.08;97.84
35910;BME280;22004;49.120;-0.200;2023-10-19T11:25:27;98307.44;;;18.93;94.54
35910;BME280;22004;49.120;-0.200;2023-10-19T11:27:57;98306.63;;;18.73;95.77
35910;BME280;22004;49.120;-0.200;2023-10-19T11:30:29;98302.72;;;18.79;95.55
35910;BME280;22004;49.120;-0.200;2023-10-19T11:32:57;98298.03;;;18.85;96.97
35910;BME280;22004;49.120;-0.200;2023-10-19T11:35:24;98293.63;;;18.70;96.75
35910;BME280;22004;49.120;-0.200;2023-10-19T11:37:52;98293.66;;;18.65;96.71
35910;BME280;22004;49.120;-0.200;2023-10-19T11:40:21;98307.47;;;18.50;96.84
35910;BME280;22004;49.120;-0.200;2023-10-19T11:42:47;98299.72;;;18.38;95.08
35910;BME280;22004;49.120;-0.200;2023-10-19T11:45:13;98301.06;;;18.17;94.87
35910;BME280;22004;49.120;-0.200;2023-10-19T11:47:38;98301.25;;;18.25;96.21
35910;BME280;22004;49.120;-0.200;2023-10-19T11:50:04;98292.63;;;18.18;95.14
35910;BME280;22004;49.120;-0.200;2023-10-19T11:52:30;98286.16;;;18.14;96.27
35910;BME280;22004;49.120;-0.200;2023-10-19T11:54:56;98287.06;;;18.04;96.79
35910;BME280;22004;49.120;-0.200;2023-10-19T11:57:23;98284.03;;;18.11;96.58
35910;BME280;22004;49.120;-0.200;2023-10-19T11:59:48;98279.16;;;18.08;97.24
35910;BME280;22004;49.120;-0.200;2023-10-19T12:02:18;98280.38;;;18.21;96.75
35910;BME280;22004;49.120;-0.200;2023-10-19T12:04:44;98280.31;;;18.26;96.21
35910;BME280;22004;49.120;-0.200;2023-10-19T12:07:10;98278.13;;;18.28;95.31
35910;BME280;22004;49.120;-0.200;2023-10-19T12:09:36;98281.13;;;18.26;96.53
35910;BME280;22004;49.120;-0.200;2023-10-19T12:12:01;98277.19;;;18.14;96.65
35910;BME280;22004;49.120;-0.200;2023-10-19T12:14:30;98281.59;;;18.09;96.66
35910;BME280;22004;49.120;-0.200;2023-10-19T12:16:57;98270.78;;;18.04;96.27
35910;BME280;22004;49.120;-0.200;2023-10-19T12:19:26;98268.53;;;18.12;96.08
35910;BME280;22004;49.120;-0.200;2023-10-19T12:21:53;98266.56;;;18.17;96.14
35910;BME280;22004;49.120;-0.200;2023-10-19T12:24:19;98262.00;;;18.13;95.08
35910;BME280;22004;49.120;-0.200;2023-10-19T12:26:45;98259.75;;;18.20;94.19
35910;BME280;22004;49.120;-0.200;2023-10-19T12:29:11;98259.69;;;18.25;95.40
35910;BME280;22004;49.120;-0.200;2023-10-19T12:31:39;98255.75;;;18.36;95.39
35910;BME280;22004;49.120;-0.200;2023-10-19T12:34:05;98237.31;;;18.33;94.28
35910;BME280;22004;49.120;-0.200;2023-10-19T12:36:31;98231.00;;;18.38;94.30
35910;BME280;22004;49.120;-0.200;2023-10-19T12:38:57;98230.84;;;18.29;95.12
35910;BME280;22004;49.120;-0.200;2023-10-19T12:41:23;98241.13;;;18.32;95.01
35910;BME280;22004;49.120;-0.200;2023-10-19T12:43:49;98236.63;;;18.22;94.60
35910;BME280;22004;49.120;-0.200;2023-10-19T12:46:21;98237.00;;;18.16;94.07
35910;BME280;22004;49.120;-0.200;2023-10-19T12:48:49;98237.63;;;18.07;92.80
35910;BME280;22004;49.120;-0.200;2023-10-19T12:51:15;98225.69;;;18.08;93.98
35910;BME280;22004;49.120;-0.200;2023-10-19T12:53:42;98236.84;;;18.07;94.68
35910;BME280;22004;49.120;-0.200;2023-10-19T12:56:10;98243.63;;;18.04;94.18
35910;BME280;22004;49.120;-0.200;2023-10-19T12:58:37;98235.44;;;18.09;95.70
35910;BME280;22004;49.120;-0.200;2023-10-19T13:01:02;98225.53;;;18.19;95.45
35910;BME280;22004;49.120;-0.200;2023-10-19T13:03:30;98222.25;;;18.22;94.99
35910;BME280;22004;49.120;-0.200;2023-10-19T13:05:57;98220.50;;;18.31;95.10
35910;BME280;22004;49.120;-0.200;2023-10-19T13:08:23;98215.75;;;18.42;93.92
35910;BME280;22004;49.120;-0.200;2023-10-19T13:10:52;98215.59;;;18.33;92.35
35910;BME280;22004;49.120;-0.200;2023-10-19T13:13:17;98225.63;;;18.32;93.66
35910;BME280;22004;49.120;-0.200;2023-10-19T13:15:45;98212.13;;;18.27;93.58
35910;BME280;22004;49.120;-0.200;2023-10-19T13:18:12;98223.94;;;18.18;94.04
35910;BME280;22004;49.120;-0.200;2023-10-19T13:20:50;98217.28;;;18.05;93.39
35910;BME280;22004;49.120;-0.200;2023-10-19T13:23:18;98220.97;;;17.95;95.10
35910;BME280;22004;49.120;-0.200;2023-10-19T13:25:53;98224.38;;;17.82;96.07
35910;BME280;22004;49.120;-0.200;2023-10-19T13:28:20;98225.28;;;17.72;97.80
35910;BME280;22004;49.120;-0.200;2023-10-19T13:33:16;98224.44;;;17.48;100.00
35910;BME280;22004;49.120;-0.200;2023-10-19T13:35:43;98225.84;;;17.40;100.00
35910;BME280;22004;49.120;-0.200;2023-10-19T13:38:10;98220.53;;;17.30;100.00
35910;BME280;22004;49.120;-0.200;2023-10-19T13:40:37;98206.50;;;17.23;100.00
35910;BME280;22004;49.120;-0.200;2023-10-19T13:43:03;98222.28;;;17.21;100.00
35910;BME280;22004;49.120;-0.200;2023-10-19T13:45:33;98218.22;;;17.18;100.00
35910;BME280;22004;49.120;-0.200;2023-10-19T13:48:00;98217.78;;;17.06;100.00
35910;BME280;22004;49.120;-0.200;2023-10-19T13:50:25;98216.53;;;16.93;100.00
35910;BME280;22004;49.120;-0.200;2023-10-19T13:52:53;98210.97;;;16.74;100.00
35910;BME280;22004;49.120;-0.200;2023-10-19T13:55:19;98198.88;;;16.62;100.00
35910;BME280;22004;49.120;-0.200;2023-10-19T13:57:46;98216.00;;;16.52;100.00
35910;BME280;22004;49.120;-0.200;2023-10-19T14:00:13;98214.44;;;16.36;100.00
35910;BME280;22004;49.120;-0.200;2023-10-19T14:02:52;98209.63;;;16.27;100.00
35910;BME280;22004;49.120;-0.200;2023-10-19T14:05:18;98211.03;;;16.20;100.00
35910;BME280;22004;49.120;-0.200;2023-10-19T14:07:49;98209.47;;;16.03;100.00
35910;BME280;22004;49.120;-0.200;2023-10-19T14:10:15;98212.47;;;16.02;100.00
35910;BME280;22004;49.120;-0.200;2023-10-19T14:12:42;98210.38;;;15.84;100.00
35910;BME280;22004;49.120;-0.200;2023-10-19T14:15:20;98209.84;;;15.87;100.00
35910;BME280;22004;49.120;-0.200;2023-10-19T14:17:47;98216.91;;;15.72;100.00
35910;BME280;22004;49.120;-0.200;2023-10-19T14:20:14;98205.81;;;15.74;100.00
35910;BME280;22004;49.120;-0.200;2023-10-19T14:22:45;98200.13;;;15.70;100.00
35910;BME280;22004;49.120;-0.200;2023-10-19T14:25:12;98198.00;;;15.72;100.00
35910;BME280;22004;49.120;-0.200;2023-10-19T14:27:44;98196.38;;;15.56;100.00
35910;BME280;22004;49.120;-0.200;2023-10-19T14:30:10;98182.84;;;15.51;100.00
35910;BME280;22004;49.120;-0.200;2023-10-19T14:32:46;98182.59;;;15.68;100.00
35910;BME280;22004;49.120;-0.200;2023-10-19T14:35:19;98174.44;;;15.63;100.00
35910;BME280;22004;49.120;-0.200;2023-10-19T14:37:50;98167.44;;;15.62;100.00
35910;BME280;22004;49.120;-0.200;2023-10-19T14:40:17;98160.38;;;15.61;100.00
35910;BME280;22004;49.120;-0.200;2023-10-19T14:42:45;98152.00;;;15.72;100.00
35910;BME280;22004;49.120;-0.200;2023-10-19T14:45:12;98143.03;;;15.82;100.00
35910;BME280;22004;49.120;-0.200;2023-10-19T14:47:46;98152.75;;;15.83;100.00